Time;durP1;ratioP1;P1;durP2;ratioP2;P2;SDS_P1;SDS_P2;PMS_P1;PMS_P2;Temp;Humidity;BMP_temperature;BMP_pressure;BME280_temperature;BME280_humidity;BME280_pressure;Samples;Min_cycle;Max_cycle;Signal;HPM_P1;HPM_P2
2021/09/19 00:02:52;;;;;;;51.10;34.47;;;11.00;99.90;;;;;;6276106;22;20027;-89
2021/09/19 00:05:45;;;;;;;52.75;36.38;;;10.90;99.90;;;;;;6275702;22;20088;-89
2021/09/19 00:08:46;;;;;;;47.75;34.75;;;10.90;99.90;;;;;;6283635;22;20106;-88
2021/09/19 00:12:02;;;;;;;57.45;36.28;;;10.90;99.90;;;;;;6284611;22;20024;-87
2021/09/19 00:14:58;;;;;;;48.17;35.72;;;10.80;99.90;;;;;;6283125;22;20175;-89
2021/09/19 00:17:55;;;;;;;52.05;36.63;;;10.90;99.90;;;;;;6282917;22;20028;-87
2021/09/19 00:21:02;;;;;;;48.45;36.47;;;10.80;99.90;;;;;;6287680;22;20023;-88
2021/09/19 00:24:06;;;;;;;50.78;36.88;;;10.80;99.90;;;;;;6252024;22;20031;-86
2021/09/19 00:27:18;;;;;;;52.50;36.58;;;10.70;99.90;;;;;;6288438;22;20431;-86
2021/09/19 00:30:09;;;;;;;56.90;36.97;;;10.70;99.90;;;;;;6238459;22;20027;-86
2021/09/19 00:32:59;;;;;;;51.03;35.47;;;10.70;99.90;;;;;;6280888;22;20028;-87
2021/09/19 00:35:58;;;;;;;52.08;37.78;;;10.60;99.90;;;;;;6255257;22;20024;-87
2021/09/19 00:39:07;;;;;;;50.03;35.30;;;10.50;99.90;;;;;;6256488;22;20142;-88
2021/09/19 00:42:03;;;;;;;58.00;36.92;;;10.50;99.90;;;;;;6257411;22;20445;-86
2021/09/19 00:45:11;;;;;;;53.35;37.50;;;10.40;99.90;;;;;;6253235;22;20700;-86
2021/09/19 00:48:10;;;;;;;51.60;36.90;;;10.30;99.90;;;;;;6275751;22;20046;-86
2021/09/19 00:51:11;;;;;;;49.72;36.25;;;10.30;99.90;;;;;;6254013;22;20105;-86
2021/09/19 00:54:15;;;;;;;55.60;38.03;;;10.30;99.90;;;;;;6253102;22;20470;-89
2021/09/19 00:57:12;;;;;;;58.30;38.25;;;10.40;99.90;;;;;;6253385;22;20101;-87
2021/09/19 01:00:04;;;;;;;55.17;37.73;;;10.30;99.90;;;;;;6252639;22;20039;-85
2021/09/19 01:03:02;;;;;;;63.20;41.10;;;10.30;99.90;;;;;;6254382;22;20270;-85
2021/09/19 01:06:02;;;;;;;58.92;40.53;;;10.20;99.90;;;;;;6236431;22;20027;-87
2021/09/19 01:09:31;;;;;;;58.08;38.30;;;10.30;99.90;;;;;;6258097;22;20042;-88
2021/09/19 01:12:43;;;;;;;55.20;37.28;;;10.20;99.90;;;;;;6243308;22;20023;-89
2021/09/19 01:15:41;;;;;;;52.67;35.90;;;10.10;99.90;;;;;;6257208;22;20023;-89
2021/09/19 01:18:34;;;;;;;52.05;35.92;;;10.00;99.90;;;;;;6252967;22;20046;-87
2021/09/19 01:21:30;;;;;;;54.70;36.35;;;9.90;99.90;;;;;;6255752;22;20415;-87
2021/09/19 01:24:43;;;;;;;51.88;35.10;;;9.90;99.90;;;;;;6254594;22;20074;-87
2021/09/19 01:27:51;;;;;;;57.83;36.80;;;9.80;99.90;;;;;;6234324;22;20035;-85
2021/09/19 01:30:50;;;;;;;49.42;34.22;;;9.70;99.90;;;;;;6275487;22;20085;-88
2021/09/19 01:33:49;;;;;;;;;;;;;;;;;;;;;
2021/09/19 01:37:00;;;;;;;52.10;35.65;;;9.70;99.90;;;;;;6234478;22;20081;-87
2021/09/19 01:39:55;;;;;;;56.03;36.08;;;9.60;99.90;;;;;;6256780;22;20055;-88
2021/09/19 01:42:55;;;;;;;64.22;39.17;;;9.60;99.90;;;;;;6236716;22;20027;-89
2021/09/19 01:45:50;;;;;;;65.18;39.05;;;9.70;99.90;;;;;;6234436;22;20174;-86
2021/09/19 01:48:58;;;;;;;67.22;39.20;;;9.70;99.90;;;;;;6279266;22;20023;-86
2021/09/19 01:52:19;;;;;;;;;;;;;;;;;;;;;
2021/09/19 01:56:07;;;;;;;68.70;40.97;;;9.90;99.90;;;;;;6112949;23;20022;-89
2021/09/19 01:59:37;;;;;;;67.60;41.08;;;10.00;99.90;;;;;;6137324;23;20125;-88
2021/09/19 02:02:38;;;;;;;63.90;39.92;;;9.90;99.90;;;;;;6139831;23;20130;-89
2021/09/19 02:06:04;;;;;;;64.38;39.65;;;9.90;99.90;;;;;;6140206;23;20016;-87
2021/09/19 02:09:09;;;;;;;65.70;40.75;;;9.90;99.90;;;;;;6127244;23;20633;-88
2021/09/19 02:12:13;;;;;;;55.08;37.05;;;9.80;99.90;;;;;;6190272;23;20024;-85
2021/09/19 02:15:26;;;;;;;61.35;38.38;;;9.60;99.90;;;;;;6240835;23;20070;-87
2021/09/19 02:18:19;;;;;;;58.53;37.63;;;9.50;99.90;;;;;;6207326;23;20028;-90
2021/09/19 02:21:09;;;;;;;56.90;35.63;;;9.50;99.90;;;;;;6226505;23;20055;-91
2021/09/19 02:23:57;;;;;;;60.58;37.28;;;9.60;99.90;;;;;;6225937;23;20431;-90
2021/09/19 02:26:44;;;;;;;57.42;37.53;;;9.60;99.90;;;;;;6246295;23;20024;-89
2021/09/19 02:29:31;;;;;;;61.05;37.88;;;9.50;99.90;;;;;;6185053;23;20436;-89
2021/09/19 02:32:19;;;;;;;62.55;36.85;;;9.50;99.90;;;;;;6246788;23;20035;-90
2021/09/19 02:35:08;;;;;;;67.55;40.30;;;9.50;99.90;;;;;;6249049;23;20059;-90
2021/09/19 02:37:55;;;;;;;62.47;38.72;;;9.50;99.90;;;;;;6223775;23;20457;-90
2021/09/19 02:40:43;;;;;;;60.10;37.55;;;9.50;99.90;;;;;;6245820;23;20111;-90
2021/09/19 02:43:30;;;;;;;59.00;36.78;;;9.40;99.90;;;;;;6224375;23;20126;-90
2021/09/19 02:46:18;;;;;;;62.00;36.72;;;9.40;99.90;;;;;;6183420;23;20024;-91
2021/09/19 02:49:06;;;;;;;59.75;36.60;;;9.30;99.90;;;;;;6244558;23;20028;-90
2021/09/19 02:51:53;;;;;;;61.28;36.70;;;9.20;99.90;;;;;;6205143;23;20035;-90
2021/09/19 02:54:40;;;;;;;64.40;37.38;;;9.20;99.90;;;;;;6224717;23;20020;-90
2021/09/19 02:57:28;;;;;;;62.92;38.40;;;9.20;99.90;;;;;;6203622;23;20364;-90
2021/09/19 03:00:20;;;;;;;68.03;39.10;;;9.10;99.90;;;;;;6222546;23;20097;-91
2021/09/19 03:03:07;;;;;;;67.60;38.00;;;9.10;99.90;;;;;;6246514;23;20038;-90
2021/09/19 03:05:55;;;;;;;67.70;38.78;;;9.10;99.90;;;;;;6224944;23;20047;-90
2021/09/19 03:08:43;;;;;;;66.50;37.72;;;9.10;99.90;;;;;;6245776;23;20446;-89
2021/09/19 03:11:30;;;;;;;65.75;38.88;;;9.10;99.90;;;;;;6238148;22;20077;-89
2021/09/19 03:14:18;;;;;;;70.90;39.92;;;9.20;99.90;;;;;;6232501;22;20351;-89
2021/09/19 03:17:05;;;;;;;73.30;41.78;;;9.10;99.90;;;;;;6252243;22;20027;-90
2021/09/19 03:19:52;;;;;;;77.00;40.28;;;9.20;99.90;;;;;;6250326;22;20366;-90
2021/09/19 03:22:40;;;;;;;70.68;39.45;;;9.20;99.90;;;;;;6272258;22;20024;-89
2021/09/19 03:25:28;;;;;;;74.15;38.80;;;9.10;99.90;;;;;;6252128;22;20031;-90
2021/09/19 03:28:15;;;;;;;73.35;39.55;;;9.10;99.90;;;;;;6251767;22;20403;-89
2021/09/19 03:31:02;;;;;;;69.97;39.28;;;9.10;99.90;;;;;;6234586;22;20026;-89
2021/09/19 03:33:50;;;;;;;67.63;37.72;;;9.10;99.90;;;;;;6253359;22;20149;-90
2021/09/19 03:36:39;;;;;;;65.82;39.20;;;9.00;99.90;;;;;;6252706;22;20020;-90
2021/09/19 03:39:27;;;;;;;61.08;36.55;;;9.00;99.90;;;;;;6274378;22;20106;-89
2021/09/19 03:42:14;;;;;;;77.70;41.13;;;9.00;99.90;;;;;;6253676;22;20051;-90
2021/09/19 03:45:05;;;;;;;72.10;40.00;;;8.90;99.90;;;;;;6255603;22;20318;-90
2021/09/19 03:47:52;;;;;;;76.50;41.03;;;9.00;99.90;;;;;;6276154;22;20024;-90
2021/09/19 03:50:40;;;;;;;72.55;40.42;;;9.00;99.90;;;;;;6233295;22;20023;-90
2021/09/19 03:53:27;;;;;;;71.80;41.60;;;9.10;99.90;;;;;;6253129;22;20034;-91
2021/09/19 03:56:15;;;;;;;77.78;43.13;;;9.10;99.90;;;;;;6253775;22;20150;-90
2021/09/19 03:59:02;;;;;;;76.90;42.53;;;9.10;99.90;;;;;;6252307;22;20226;-91
2021/09/19 04:02:01;;;;;;;72.18;40.72;;;9.10;99.90;;;;;;6276067;22;20446;-89
2021/09/19 04:05:23;;;;;;;;;;;;;;;;;;;;;
2021/09/19 04:08:39;;;;;;;63.10;37.72;;;9.10;99.90;;;;;;6258054;22;20053;-89
2021/09/19 04:11:27;;;;;;;67.60;38.72;;;9.00;99.90;;;;;;6275791;22;20047;-89
2021/09/19 04:14:14;;;;;;;64.70;35.92;;;8.90;99.90;;;;;;6254858;22;20019;-90
2021/09/19 04:17:02;;;;;;;59.55;35.30;;;8.80;99.90;;;;;;6250670;22;20027;-90
2021/09/19 04:19:50;;;;;;;57.67;35.00;;;8.70;99.90;;;;;;6273310;22;20023;-90
2021/09/19 04:22:37;;;;;;;60.67;34.03;;;8.60;99.90;;;;;;6276308;22;20287;-90
2021/09/19 04:25:24;;;;;;;60.35;34.20;;;8.60;99.90;;;;;;6253258;22;20023;-90
2021/09/19 04:28:12;;;;;;;59.72;34.97;;;8.50;99.90;;;;;;6275658;22;20303;-91
2021/09/19 04:30:59;;;;;;;67.07;36.50;;;8.40;99.90;;;;;;6210960;22;20020;-91
2021/09/19 04:33:47;;;;;;;66.60;36.33;;;8.40;99.90;;;;;;6275975;22;20027;-91
2021/09/19 04:36:35;;;;;;;66.90;36.78;;;8.40;99.90;;;;;;6252137;22;20118;-90
2021/09/19 04:39:23;;;;;;;71.03;37.58;;;8.40;99.90;;;;;;6233133;22;20027;-90
2021/09/19 04:42:11;;;;;;;72.25;39.53;;;8.50;99.90;;;;;;6253888;22;20023;-91
2021/09/19 04:44:58;;;;;;;59.33;36.30;;;8.40;99.90;;;;;;6251599;22;20100;-92
2021/09/19 04:47:46;;;;;;;68.18;39.28;;;8.40;99.90;;;;;;6232724;22;20115;-91
2021/09/19 04:50:34;;;;;;;71.68;39.50;;;8.40;99.90;;;;;;6274865;22;20031;-91
2021/09/19 04:53:21;;;;;;;65.60;39.72;;;8.40;99.90;;;;;;6253079;22;20024;-91
2021/09/19 04:56:08;;;;;;;71.68;39.80;;;8.40;99.90;;;;;;6254750;22;20034;-90
2021/09/19 04:58:56;;;;;;;77.10;41.75;;;8.50;99.90;;;;;;6253743;22;20031;-92
2021/09/19 05:01:44;;;;;;;75.93;41.03;;;8.50;99.90;;;;;;6250888;22;20051;-91
2021/09/19 05:04:31;;;;;;;71.07;41.75;;;8.50;99.90;;;;;;6230805;22;20426;-91
2021/09/19 05:07:19;;;;;;;76.65;42.33;;;8.60;99.90;;;;;;6274935;22;20392;-91
2021/09/19 05:10:07;;;;;;;71.28;39.25;;;8.60;99.90;;;;;;6273970;22;20038;-91
2021/09/19 05:12:54;;;;;;;66.40;37.60;;;8.50;99.90;;;;;;6252543;22;20020;-92
2021/09/19 05:15:41;;;;;;;62.28;35.90;;;8.40;99.90;;;;;;6249686;22;20031;-87
2021/09/19 05:18:31;;;;;;;70.18;37.60;;;8.20;99.90;;;;;;6274842;22;20028;-86
2021/09/19 05:21:18;;;;;;;66.25;37.88;;;8.20;99.90;;;;;;6252046;22;20418;-85
2021/09/19 05:24:05;;;;;;;65.20;37.47;;;8.20;99.90;;;;;;6272100;22;20059;-86
2021/09/19 05:26:53;;;;;;;67.60;37.28;;;8.20;99.90;;;;;;6274448;22;20028;-87
2021/09/19 05:29:42;;;;;;;71.60;38.92;;;8.20;99.90;;;;;;6254027;22;20020;-86
2021/09/19 05:32:32;;;;;;;74.78;39.50;;;8.20;99.90;;;;;;6253783;22;20394;-84
2021/09/19 05:35:19;;;;;;;68.70;38.13;;;8.30;99.90;;;;;;6251235;22;20090;-87
2021/09/19 05:38:07;;;;;;;70.03;36.92;;;8.30;99.90;;;;;;6272511;22;20027;-87
2021/09/19 05:40:57;;;;;;;74.03;41.10;;;8.40;99.90;;;;;;6273776;22;20028;-86
2021/09/19 05:43:44;;;;;;;77.55;39.97;;;8.50;99.90;;;;;;6274575;22;20028;-87
2021/09/19 05:46:35;;;;;;;74.95;38.38;;;8.60;99.90;;;;;;6276842;22;20032;-85
2021/09/19 05:49:22;;;;;;;65.10;37.15;;;8.60;99.90;;;;;;6253204;22;20023;-85
2021/09/19 05:52:11;;;;;;;72.47;38.97;;;8.70;99.90;;;;;;6251482;22;20130;-86
2021/09/19 05:54:59;;;;;;;71.18;38.70;;;8.80;99.90;;;;;;6251157;22;20377;-86
2021/09/19 05:57:47;;;;;;;83.38;40.22;;;8.90;99.90;;;;;;6273358;22;20385;-86
2021/09/19 06:00:34;;;;;;;79.88;42.33;;;9.00;99.90;;;;;;6275102;22;20455;-86
2021/09/19 06:04:03;;;;;;;80.60;42.63;;;9.10;99.90;;;;;;6273273;22;20032;-86
2021/09/19 06:11:20;;;;;;;76.00;39.78;;;9.60;99.90;;;;;;6272984;22;20063;-89
2021/09/19 06:14:07;;;;;;;75.30;41.40;;;9.80;99.90;;;;;;6224549;23;20024;-92
2021/09/19 06:16:55;;;;;;;74.65;40.30;;;10.00;99.90;;;;;;6223135;23;20028;-92
2021/09/19 06:19:49;;;;;;;67.95;40.13;;;10.10;99.90;;;;;;6223563;23;20335;-92
2021/09/19 06:22:37;;;;;;;70.57;40.20;;;10.20;99.90;;;;;;6224432;23;20427;-92
2021/09/19 06:25:25;;;;;;;73.28;42.60;;;10.40;99.90;;;;;;6245518;23;20052;-91
2021/09/19 06:28:13;;;;;;;60.38;37.55;;;10.30;99.90;;;;;;6245293;23;20031;-91
2021/09/19 06:31:01;;;;;;;57.13;36.30;;;10.20;99.90;;;;;;6247597;23;20031;-92
2021/09/19 06:33:49;;;;;;;55.78;36.10;;;10.20;99.90;;;;;;6228049;23;20039;-89
2021/09/19 06:36:36;;;;;;;50.28;34.33;;;10.40;99.90;;;;;;6227573;23;20078;-90
2021/09/19 06:39:24;;;;;;;44.45;31.95;;;10.50;99.90;;;;;;6224862;23;20055;-90
2021/09/19 06:42:12;;;;;;;41.28;29.55;;;10.60;99.90;;;;;;6222844;23;20028;-91
2021/09/19 06:44:59;;;;;;;35.30;26.17;;;10.80;99.90;;;;;;6225594;23;20036;-90
2021/09/19 06:47:47;;;;;;;37.30;25.75;;;11.00;99.90;;;;;;6204454;23;20039;-90
2021/09/19 06:50:37;;;;;;;26.77;21.20;;;11.60;99.90;;;;;;6244749;23;20411;-90
2021/09/19 06:53:25;;;;;;;25.92;19.65;;;11.90;99.90;;;;;;6206124;23;20031;-90
2021/09/19 06:56:14;;;;;;;22.17;18.85;;;12.20;99.90;;;;;;6229713;23;20020;-90
2021/09/19 06:59:02;;;;;;;19.98;15.80;;;12.50;99.90;;;;;;6247606;23;20024;-90
2021/09/19 07:01:49;;;;;;;19.13;16.27;;;12.80;99.90;;;;;;6203394;23;20020;-89
2021/09/19 07:04:37;;;;;;;16.35;14.38;;;12.90;99.90;;;;;;6225682;23;20339;-91
2021/09/19 07:07:25;;;;;;;16.70;14.90;;;13.00;99.90;;;;;;6225040;23;20063;-90
2021/09/19 07:10:13;;;;;;;16.35;13.38;;;13.10;99.90;;;;;;6245333;23;20024;-91
2021/09/19 07:13:00;;;;;;;14.30;12.80;;;13.30;99.90;;;;;;6255486;22;20095;-90
2021/09/19 07:15:52;;;;;;;14.77;13.07;;;13.30;99.90;;;;;;6276947;22;20095;-89
2021/09/19 07:18:43;;;;;;;14.02;12.43;;;13.20;99.90;;;;;;6236051;22;20081;-90
2021/09/19 07:21:30;;;;;;;15.07;12.10;;;13.20;99.90;;;;;;6276391;22;20109;-92
2021/09/19 07:24:19;;;;;;;17.15;11.73;;;13.20;99.90;;;;;;6278829;22;20069;-91
2021/09/19 07:27:07;;;;;;;15.00;11.63;;;13.20;99.90;;;;;;6281089;22;20441;-90
2021/09/19 07:29:57;;;;;;;12.90;10.85;;;13.40;99.90;;;;;;6277192;22;20066;-90
2021/09/19 07:32:44;;;;;;;14.00;10.93;;;13.50;99.90;;;;;;6215430;22;20024;-91
2021/09/19 07:35:32;;;;;;;12.90;9.80;;;13.80;99.90;;;;;;6255875;22;20024;-91
2021/09/19 07:38:20;;;;;;;12.40;9.88;;;14.00;99.90;;;;;;6276325;22;20047;-90
2021/09/19 07:41:07;;;;;;;10.75;8.93;;;14.20;99.90;;;;;;6255741;22;20378;-89
2021/09/19 07:43:55;;;;;;;11.05;9.05;;;14.30;99.90;;;;;;6275720;22;20051;-91
2021/09/19 07:46:45;;;;;;;12.02;9.85;;;14.60;99.90;;;;;;6255334;22;20132;-90
2021/09/19 07:49:36;;;;;;;13.55;9.93;;;14.70;99.90;;;;;;6214638;22;20024;-89
2021/09/19 07:52:24;;;;;;;12.25;9.13;;;14.60;99.90;;;;;;6274378;22;20120;-90
2021/09/19 07:55:14;;;;;;;12.07;9.98;;;14.40;99.90;;;;;;6233847;22;20015;-91
2021/09/19 07:58:02;;;;;;;10.88;9.43;;;14.50;99.90;;;;;;6274247;22;20051;-90
2021/09/19 08:00:49;;;;;;;12.88;9.77;;;14.70;99.90;;;;;;6274146;22;20034;-90
2021/09/19 08:03:37;;;;;;;11.00;9.32;;;14.90;99.90;;;;;;6276217;22;20028;-91
2021/09/19 08:06:25;;;;;;;12.65;8.43;;;15.20;99.90;;;;;;6251540;22;20027;-90
2021/09/19 08:09:13;;;;;;;11.63;8.98;;;15.60;99.90;;;;;;6254847;22;20331;-90
2021/09/19 08:12:00;;;;;;;11.60;8.57;;;16.30;99.90;;;;;;6276473;22;20116;-90
2021/09/19 08:14:50;;;;;;;9.07;7.30;;;16.90;99.90;;;;;;6276354;22;20081;-87
2021/09/19 08:17:37;;;;;;;11.35;7.80;;;17.70;99.90;;;;;;6263736;22;20027;-89
2021/09/19 08:20:26;;;;;;;8.00;7.18;;;18.80;99.90;;;;;;6266626;22;20035;-88
2021/09/19 08:23:14;;;;;;;7.68;5.97;;;19.50;99.90;;;;;;6277685;22;20052;-90
2021/09/19 08:26:01;;;;;;;8.40;6.15;;;20.00;99.90;;;;;;6254767;22;20373;-90
2021/09/19 08:28:50;;;;;;;6.70;5.75;;;20.80;99.90;;;;;;6254853;22;20035;-90
2021/09/19 08:31:41;;;;;;;6.15;5.35;;;21.70;98.90;;;;;;6255428;22;20028;-89
2021/09/19 08:34:29;;;;;;;6.10;4.50;;;22.60;94.70;;;;;;6289817;22;20027;-90
2021/09/19 08:37:16;;;;;;;5.78;5.20;;;23.80;85.70;;;;;;6253249;22;20090;-90
2021/09/19 08:40:05;;;;;;;6.70;5.88;;;24.50;76.00;;;;;;6283680;22;20027;-90
2021/09/19 08:42:54;;;;;;;7.15;6.45;;;24.10;76.00;;;;;;6287624;22;20028;-90
2021/09/19 08:45:46;;;;;;;6.68;5.95;;;23.00;78.50;;;;;;6269410;22;20407;-90
2021/09/19 08:48:34;;;;;;;6.43;5.68;;;22.50;82.10;;;;;;6290311;22;20027;-90
2021/09/19 08:51:21;;;;;;;5.75;5.07;;;22.80;82.60;;;;;;6236878;22;20116;-90
2021/09/19 08:54:09;;;;;;;6.40;5.80;;;23.90;77.40;;;;;;6256405;22;20024;-91
2021/09/19 08:56:56;;;;;;;8.48;5.75;;;24.40;75.80;;;;;;6253526;22;20027;-90
2021/09/19 08:59:49;;;;;;;5.25;4.75;;;25.00;72.20;;;;;;6276189;22;20280;-89
2021/09/19 09:02:53;;;;;;;6.07;5.47;;;25.60;68.40;;;;;;6277211;22;20426;-90
2021/09/19 09:05:41;;;;;;;6.05;5.45;;;25.20;69.50;;;;;;6255534;22;20028;-90
2021/09/19 09:08:31;;;;;;;6.30;5.70;;;25.20;69.20;;;;;;6252551;22;20531;-90
2021/09/19 09:11:18;;;;;;;7.43;6.50;;;25.20;69.90;;;;;;6255389;22;20102;-90
2021/09/19 09:14:05;;;;;;;6.88;5.95;;;25.10;69.20;;;;;;6255556;22;20447;-90
2021/09/19 09:17:18;;;;;;;7.45;5.60;;;25.70;67.10;;;;;;6210185;22;20102;-90
2021/09/19 09:20:07;;;;;;;;;;;25.70;67.40;;;;;;6281189;22;20085;-89
2021/09/19 09:22:54;;;;;;;5.97;5.38;;;26.50;65.90;;;;;;6235488;22;19944;-89
2021/09/19 09:25:42;;;;;;;6.35;5.75;;;27.40;58.50;;;;;;6275740;22;20023;-89
2021/09/19 09:29:11;;;;;;;8.50;7.00;;;27.80;58.40;;;;;;6255227;22;20028;-89
2021/09/19 09:31:58;;;;;;;7.95;7.15;;;26.80;58.20;;;;;;6202975;22;20035;-89
2021/09/19 09:34:46;;;;;;;7.85;7.05;;;25.70;60.80;;;;;;6255127;22;20400;-89
2021/09/19 09:37:41;;;;;;;10.02;8.18;;;25.00;62.50;;;;;;6253004;22;20038;-90
2021/09/19 09:40:31;;;;;;;8.95;7.30;;;25.20;61.40;;;;;;6272983;22;20067;-89
2021/09/19 09:43:24;;;;;;;9.45;8.32;;;25.40;61.50;;;;;;6273873;22;20448;-90
2021/09/19 09:46:13;;;;;;;8.18;7.38;;;25.80;58.40;;;;;;6251799;22;20130;-90
2021/09/19 09:49:00;;;;;;;8.60;7.70;;;26.00;61.00;;;;;;6253733;22;20106;-89
2021/09/19 09:51:48;;;;;;;8.23;7.43;;;26.70;57.50;;;;;;6231155;22;20111;-90
2021/09/19 09:54:48;;;;;;;8.93;7.43;;;26.90;56.40;;;;;;6251810;22;20445;-89
2021/09/19 09:57:35;;;;;;;8.55;6.95;;;26.90;55.50;;;;;;6273486;22;20051;-89
2021/09/19 10:00:22;;;;;;;8.50;7.60;;;26.40;57.40;;;;;;6252327;22;20023;-89
2021/09/19 10:03:10;;;;;;;9.60;6.65;;;26.20;57.10;;;;;;6233881;22;20089;-90
2021/09/19 10:05:58;;;;;;;7.45;6.68;;;26.90;55.80;;;;;;6254066;22;20426;-89
2021/09/19 10:09:06;;;;;;;7.32;6.63;;;27.80;54.40;;;;;;6259518;22;20031;-91
2021/09/19 10:11:54;;;;;;;8.10;6.88;;;27.70;54.60;;;;;;6253193;22;20020;-90
2021/09/19 10:14:44;;;;;;;6.93;6.28;;;27.40;58.20;;;;;;6278259;22;20023;-89
2021/09/19 10:17:34;;;;;;;7.32;6.63;;;27.70;55.30;;;;;;6232764;22;20031;-90
2021/09/19 10:20:23;;;;;;;7.80;7.00;;;28.60;53.50;;;;;;6255895;22;20023;-90
2021/09/19 10:23:24;;;;;;;6.57;5.95;;;28.20;55.40;;;;;;6275648;22;20032;-88
2021/09/19 10:26:21;;;;;;;6.35;5.75;;;28.90;51.20;;;;;;6277276;22;20105;-90
2021/09/19 10:29:18;;;;;;;6.57;5.85;;;29.30;53.90;;;;;;6276206;22;20437;-91
2021/09/19 10:32:26;;;;;;;6.15;5.45;;;29.50;49.90;;;;;;6275212;22;20057;-89
2021/09/19 10:35:17;;;;;;;5.85;5.07;;;30.40;49.20;;;;;;6252499;22;20113;-91
2021/09/19 10:38:05;;;;;;;7.50;4.40;;;31.10;50.30;;;;;;6255017;22;20489;-90
2021/09/19 10:41:16;;;;;;;6.30;5.47;;;31.30;49.60;;;;;;6275712;22;20447;-90
2021/09/19 10:44:04;;;;;;;6.70;4.90;;;31.30;46.60;;;;;;6277338;22;20028;-91
2021/09/19 10:46:51;;;;;;;5.18;4.70;;;31.20;48.10;;;;;;6253891;22;20284;-92
2021/09/19 10:49:40;;;;;;;5.80;5.30;;;31.00;48.00;;;;;;6255057;22;20031;-90
2021/09/19 10:52:46;;;;;;;6.32;5.05;;;30.20;46.20;;;;;;6275348;22;20081;-89
2021/09/19 10:55:52;;;;;;;5.82;5.20;;;29.60;49.40;;;;;;6273243;22;20139;-89
2021/09/19 10:58:48;;;;;;;8.73;5.20;;;29.90;49.90;;;;;;6253510;22;20024;-89
2021/09/19 11:01:37;;;;;;;5.47;4.70;;;30.60;46.70;;;;;;6276692;22;20158;-89
2021/09/19 11:04:33;;;;;;;6.57;4.95;;;31.20;47.60;;;;;;6276258;22;20027;-89
2021/09/19 11:07:20;;;;;;;5.82;5.28;;;30.80;47.70;;;;;;6276097;22;20117;-90
2021/09/19 11:10:13;;;;;;;7.25;5.05;;;30.70;46.10;;;;;;6233297;22;20055;-90
2021/09/19 11:13:22;;;;;;;5.88;4.85;;;31.00;45.60;;;;;;6273456;22;20035;-88
2021/09/19 11:16:29;;;;;;;5.95;5.35;;;30.70;46.40;;;;;;6276029;22;20137;-89
2021/09/19 11:19:21;;;;;;;5.90;5.40;;;30.30;44.70;;;;;;6255108;22;20020;-89
2021/09/19 11:22:21;;;;;;;;;;;29.90;45.50;;;;;;6275148;22;20117;-88
2021/09/19 11:25:17;;;;;;;6.38;5.78;;;29.90;45.40;;;;;;6273771;22;19931;-90
2021/09/19 11:28:04;;;;;;;7.13;5.82;;;29.40;44.70;;;;;;6273824;22;20027;-88
2021/09/19 11:30:57;;;;;;;5.32;4.82;;;29.70;45.40;;;;;;6274906;22;20027;-90
2021/09/19 11:33:44;;;;;;;4.55;4.15;;;29.80;44.30;;;;;;6255601;22;20081;-88
2021/09/19 11:36:33;;;;;;;6.43;5.35;;;30.10;45.00;;;;;;6255145;22;20031;-90
2021/09/19 11:39:21;;;;;;;6.05;4.72;;;30.40;45.20;;;;;;6252995;22;20023;-89
2021/09/19 11:42:12;;;;;;;6.65;4.35;;;30.90;45.30;;;;;;6252547;22;20032;-90
2021/09/19 11:45:17;;;;;;;6.40;4.18;;;30.10;45.70;;;;;;6275595;22;20023;-88
2021/09/19 11:48:07;;;;;;;3.88;3.58;;;29.90;48.40;;;;;;6255375;22;20047;-89
2021/09/19 11:50:55;;;;;;;3.78;3.47;;;30.50;48.50;;;;;;6252985;22;20062;-88
2021/09/19 11:53:44;;;;;;;6.55;4.43;;;29.40;48.80;;;;;;6276555;22;20027;-89
2021/09/19 11:56:32;;;;;;;4.30;3.83;;;27.40;51.70;;;;;;6273543;22;20031;-87
2021/09/19 11:59:19;;;;;;;5.15;4.65;;;25.60;56.00;;;;;;6253785;22;20035;-88
2021/09/19 12:02:08;;;;;;;6.20;5.07;;;24.40;58.60;;;;;;6275314;22;20149;-90
2021/09/19 12:05:00;;;;;;;4.57;4.18;;;23.40;62.20;;;;;;6254597;22;20038;-88
2021/09/19 12:07:50;;;;;;;7.90;4.95;;;22.70;66.00;;;;;;6254603;22;20027;-90
2021/09/19 12:10:40;;;;;;;6.30;4.80;;;22.10;68.10;;;;;;6256220;22;20024;-89
2021/09/19 12:13:30;;;;;;;6.20;5.60;;;21.90;70.80;;;;;;6268894;22;20124;-89
2021/09/19 12:16:24;;;;;;;8.23;5.47;;;22.00;70.90;;;;;;6274567;22;20028;-90
2021/09/19 12:19:25;;;;;;;6.28;5.22;;;22.30;71.50;;;;;;6232609;22;20489;-89
2021/09/19 12:22:22;;;;;;;6.65;5.20;;;22.80;69.60;;;;;;6275055;22;20081;-89
2021/09/19 12:25:13;;;;;;;5.63;4.80;;;24.10;64.00;;;;;;6253251;22;20028;-87
2021/09/19 12:28:01;;;;;;;7.45;5.05;;;24.00;62.40;;;;;;6274236;22;20111;-88
2021/09/19 12:30:48;;;;;;;5.95;4.30;;;24.80;63.60;;;;;;6253033;22;20024;-87
2021/09/19 12:33:50;;;;;;;7.78;4.32;;;26.40;59.50;;;;;;6253833;22;20055;-87
2021/09/19 12:36:41;;;;;;;4.60;3.80;;;27.60;55.10;;;;;;6252396;22;20138;-87
2021/09/19 12:39:33;;;;;;;6.90;4.30;;;28.50;52.80;;;;;;6274605;22;20042;-87
2021/09/19 12:42:20;;;;;;;4.93;4.30;;;28.80;50.90;;;;;;6274681;22;20399;-87
2021/09/19 12:45:20;;;;;;;7.88;3.70;;;29.30;48.50;;;;;;6274110;22;20238;-87
2021/09/19 12:48:09;;;;;;;3.60;3.10;;;29.60;49.60;;;;;;6274935;22;20502;-87
2021/09/19 12:51:01;;;;;;;3.50;3.20;;;28.90;49.70;;;;;;6272453;22;20158;-87
2021/09/19 12:53:49;;;;;;;4.18;3.70;;;27.80;51.70;;;;;;6273417;22;20051;-89
2021/09/19 12:56:36;;;;;;;4.55;3.28;;;26.50;55.20;;;;;;6210452;22;20061;-88
2021/09/19 12:59:23;;;;;;;5.78;3.85;;;25.40;57.70;;;;;;6271999;22;20047;-89
2021/09/19 13:02:11;;;;;;;4.18;3.50;;;24.80;58.10;;;;;;6272205;22;20161;-85
2021/09/19 13:04:59;;;;;;;4.70;4.00;;;24.00;61.60;;;;;;6274118;22;20023;-87
2021/09/19 13:07:47;;;;;;;4.80;3.70;;;23.60;63.30;;;;;;6232792;22;20042;-87
2021/09/19 13:10:34;;;;;;;4.30;3.65;;;24.50;61.90;;;;;;6252503;22;20447;-87
2021/09/19 13:13:22;;;;;;;4.20;3.25;;;25.70;57.20;;;;;;6274143;22;20035;-86
2021/09/19 13:16:11;;;;;;;6.20;3.70;;;26.90;55.20;;;;;;6274290;22;20039;-85
2021/09/19 13:18:58;;;;;;;3.30;3.00;;;28.10;52.00;;;;;;6274523;22;20041;-87
2021/09/19 13:21:45;;;;;;;4.22;2.72;;;29.00;51.60;;;;;;6273076;22;20110;-88
2021/09/19 13:24:33;;;;;;;3.05;2.75;;;29.40;50.30;;;;;;6272201;22;20124;-89
2021/09/19 13:27:22;;;;;;;4.50;3.60;;;29.00;51.90;;;;;;6252184;22;20435;-84
2021/09/19 13:30:10;;;;;;;4.53;3.55;;;28.10;51.00;;;;;;6254290;22;20051;-86
2021/09/19 13:33:00;;;;;;;5.50;4.28;;;26.20;54.20;;;;;;6272449;22;20089;-85
2021/09/19 13:35:47;;;;;;;4.35;3.58;;;25.00;57.70;;;;;;6273727;22;20024;-85
2021/09/19 13:38:37;;;;;;;3.85;3.45;;;23.90;61.90;;;;;;6250981;22;20034;-86
2021/09/19 13:41:27;;;;;;;4.70;4.20;;;23.30;65.20;;;;;;6275539;22;20058;-86
2021/09/19 13:44:18;;;;;;;5.35;4.25;;;22.40;68.10;;;;;;6273269;22;20035;-84
2021/09/19 13:47:09;;;;;;;5.10;4.60;;;21.60;71.60;;;;;;6280154;22;20051;-90
2021/09/19 13:49:57;;;;;;;5.03;4.18;;;20.80;73.30;;;;;;6261580;22;20023;-90
2021/09/19 13:52:56;;;;;;;4.72;4.20;;;20.30;76.70;;;;;;6253231;22;20304;-92
2021/09/19 13:55:45;;;;;;;5.70;4.10;;;19.70;81.40;;;;;;6259329;22;20146;-88
2021/09/19 13:58:35;;;;;;;5.70;4.57;;;19.50;83.20;;;;;;6255332;22;20035;-88
2021/09/19 14:01:22;;;;;;;6.15;4.97;;;19.20;86.00;;;;;;6274380;22;20032;-88
2021/09/19 14:04:10;;;;;;;6.70;4.78;;;19.10;87.80;;;;;;6251754;22;20040;-90
2021/09/19 14:06:57;;;;;;;5.07;4.28;;;19.00;90.10;;;;;;6272195;22;20111;-87
2021/09/19 14:09:52;;;;;;;5.47;4.97;;;18.90;89.20;;;;;;6273924;22;20040;-88
2021/09/19 14:12:40;;;;;;;6.88;5.35;;;18.80;90.70;;;;;;6254207;22;20030;-90
2021/09/19 14:15:27;;;;;;;6.18;5.47;;;18.80;91.20;;;;;;6252301;22;20418;-88
2021/09/19 14:18:14;;;;;;;5.90;4.82;;;18.70;92.00;;;;;;6256528;22;20019;-89
2021/09/19 14:21:02;;;;;;;6.28;5.03;;;18.80;93.00;;;;;;6279853;22;20039;-91
2021/09/19 14:23:49;;;;;;;5.30;4.80;;;18.80;93.90;;;;;;6273235;22;20031;-89
2021/09/19 14:26:37;;;;;;;5.63;5.03;;;18.80;93.10;;;;;;6273925;22;20032;-90
2021/09/19 14:29:24;;;;;;;6.28;5.05;;;18.70;93.20;;;;;;6277431;22;20023;-88
2021/09/19 14:32:14;;;;;;;5.57;5.00;;;18.50;93.80;;;;;;6256935;22;20156;-88
2021/09/19 14:35:01;;;;;;;9.68;5.70;;;18.40;94.60;;;;;;6274846;22;20454;-90
2021/09/19 14:37:48;;;;;;;8.18;4.68;;;18.20;95.30;;;;;;6281247;22;20019;-89
2021/09/19 14:40:36;;;;;;;6.22;5.03;;;18.20;95.40;;;;;;6251814;22;20814;-89
2021/09/19 14:43:23;;;;;;;6.03;5.22;;;18.10;97.20;;;;;;6232368;22;20039;-88
2021/09/19 14:46:11;;;;;;;4.90;4.47;;;18.70;95.90;;;;;;6273539;22;20383;-87
2021/09/19 14:48:59;;;;;;;5.22;4.18;;;20.20;93.40;;;;;;6273068;22;20024;-92
2021/09/19 14:51:49;;;;;;;5.53;4.32;;;22.00;84.30;;;;;;6230675;22;20189;-88
2021/09/19 14:54:37;;;;;;;4.43;4.00;;;23.70;75.00;;;;;;6253760;22;20027;-89
2021/09/19 14:57:24;;;;;;;4.15;3.72;;;24.80;70.40;;;;;;6274374;22;20095;-90